Time;durP1;ratioP1;P1;durP2;ratioP2;P2;SDS_P1;SDS_P2;PMS_P1;PMS_P2;Temp;Humidity;BMP_temperature;BMP_pressure;BME280_temperature;BME280_humidity;BME280_pressure;Samples;Min_cycle;Max_cycle;Signal;HPM_P1;HPM_P2
2023/01/08 00:01:59;;;;;;;8.50;5.60;;;7.30;99.90;;;;;;4200006;28;20451;-79
2023/01/08 00:04:01;;;;;;;7.53;4.87;;;7.30;99.90;;;;;;4194683;28;20534;-77
2023/01/08 00:06:06;;;;;;;7.37;4.33;;;7.30;99.90;;;;;;4197625;28;20849;-76
2023/01/08 00:08:09;;;;;;;7.33;4.90;;;7.20;99.90;;;;;;4200518;28;20540;-77
2023/01/08 00:10:11;;;;;;;7.50;4.70;;;7.20;99.90;;;;;;4202067;28;20466;-78
2023/01/08 00:12:13;;;;;;;7.93;4.53;;;7.20;99.90;;;;;;4203093;28;20856;-80
2023/01/08 00:14:15;;;;;;;8.30;5.27;;;7.20;99.90;;;;;;4197609;28;20466;-77
2023/01/08 00:16:18;;;;;;;8.57;5.10;;;7.20;99.90;;;;;;4197735;28;20455;-77
2023/01/08 00:18:20;;;;;;;7.90;4.50;;;7.20;99.90;;;;;;4198617;28;20452;-78
2023/01/08 00:20:22;;;;;;;7.63;4.90;;;7.20;99.90;;;;;;4206168;28;20571;-79
2023/01/08 00:22:26;;;;;;;8.67;5.03;;;7.20;99.90;;;;;;4199646;28;20455;-79
2023/01/08 00:24:28;;;;;;;6.97;4.77;;;7.30;99.90;;;;;;4199721;28;20545;-77
2023/01/08 00:26:30;;;;;;;7.00;4.63;;;7.20;99.90;;;;;;4201205;28;20812;-78
2023/01/08 00:28:32;;;;;;;7.83;5.50;;;7.20;99.90;;;;;;4201936;28;20467;-78
2023/01/08 00:30:34;;;;;;;6.40;4.70;;;7.30;99.90;;;;;;4202292;28;21032;-77
2023/01/08 00:32:36;;;;;;;8.77;5.00;;;7.30;99.90;;;;;;4201463;28;20527;-76
2023/01/08 00:34:38;;;;;;;6.93;4.90;;;7.30;99.90;;;;;;4201662;28;20451;-77
2023/01/08 00:36:39;;;;;;;7.30;5.00;;;7.30;99.90;;;;;;4200448;28;20447;-77
2023/01/08 00:38:44;;;;;;;6.10;4.90;;;7.30;99.90;;;;;;4196962;28;20944;-77
2023/01/08 00:40:48;;;;;;;6.73;4.73;;;7.30;99.90;;;;;;4204805;28;21241;-77
2023/01/08 00:42:49;;;;;;;7.93;5.07;;;7.40;99.90;;;;;;4201488;28;20432;-77
2023/01/08 00:44:51;;;;;;;7.47;4.57;;;7.40;99.90;;;;;;4196661;28;20932;-77
2023/01/08 00:46:53;;;;;;;6.47;4.47;;;7.50;99.90;;;;;;4198353;28;20554;-76
2023/01/08 00:48:55;;;;;;;6.73;4.50;;;7.60;99.90;;;;;;4203535;28;20580;-76
2023/01/08 00:50:57;;;;;;;7.63;5.53;;;7.50;99.90;;;;;;4198104;28;20899;-77
2023/01/08 00:52:59;;;;;;;7.07;5.07;;;7.50;99.90;;;;;;4198902;28;20522;-77
2023/01/08 00:55:03;;;;;;;7.93;5.37;;;7.50;99.90;;;;;;4199747;28;20462;-78
2023/01/08 00:57:05;;;;;;;8.87;5.60;;;7.50;99.90;;;;;;4202087;28;20989;-77
2023/01/08 00:59:07;;;;;;;7.83;5.37;;;7.50;99.90;;;;;;4200146;28;20471;-77
2023/01/08 01:01:13;;;;;;;9.60;5.13;;;7.50;99.90;;;;;;4200141;28;20471;-76
2023/01/08 01:03:15;;;;;;;8.33;4.97;;;7.60;99.90;;;;;;4198287;28;20454;-79
2023/01/08 01:05:17;;;;;;;8.40;5.23;;;7.60;99.90;;;;;;4198301;28;20533;-79
2023/01/08 01:07:19;;;;;;;9.97;5.03;;;7.60;99.90;;;;;;4201055;28;20841;-79
2023/01/08 01:09:21;;;;;;;7.87;5.10;;;7.70;99.90;;;;;;4205340;28;20538;-78
2023/01/08 01:11:28;;;;;;;7.10;4.90;;;7.60;99.90;;;;;;4200076;28;20503;-78
2023/01/08 01:13:30;;;;;;;7.43;4.93;;;7.70;99.90;;;;;;4200462;28;20448;-79
2023/01/08 01:15:35;;;;;;;7.30;4.83;;;7.70;99.90;;;;;;4197007;28;20532;-79
2023/01/08 01:17:39;;;;;;;6.90;4.80;;;7.70;99.90;;;;;;4209196;28;20475;-79
2023/01/08 01:19:41;;;;;;;6.13;4.43;;;7.70;99.90;;;;;;4199140;28;20465;-79
2023/01/08 01:21:43;;;;;;;6.80;4.50;;;7.70;99.90;;;;;;4199273;28;20444;-79
2023/01/08 01:23:45;;;;;;;6.93;4.50;;;7.70;99.90;;;;;;4202373;28;20451;-79
2023/01/08 01:25:47;;;;;;;7.50;4.90;;;7.80;99.90;;;;;;4201869;28;20448;-79
2023/01/08 01:27:53;;;;;;;6.80;4.43;;;7.70;99.90;;;;;;4202988;28;20470;-79
2023/01/08 01:29:55;;;;;;;6.70;4.60;;;7.80;99.90;;;;;;4203185;28;20511;-78
2023/01/08 01:31:57;;;;;;;7.17;4.90;;;7.80;99.90;;;;;;4202041;28;20470;-79
2023/01/08 01:33:59;;;;;;;9.97;5.20;;;7.80;99.90;;;;;;4203865;28;20546;-78
2023/01/08 01:36:03;;;;;;;7.47;4.60;;;7.80;99.90;;;;;;4204671;28;20640;-77
2023/01/08 01:38:04;;;;;;;7.67;4.37;;;7.90;99.90;;;;;;4203423;28;20474;-78
2023/01/08 01:40:07;;;;;;;6.83;4.33;;;7.80;99.90;;;;;;4204827;28;21052;-78
2023/01/08 01:42:38;;;;;;;8.30;4.90;;;7.70;99.90;;;;;;4204990;28;21077;-79
2023/01/08 01:44:43;;;;;;;7.10;4.90;;;7.70;99.90;;;;;;4203832;28;20516;-79
2023/01/08 01:46:47;;;;;;;8.17;4.67;;;7.70;99.90;;;;;;4208454;28;21183;-79
2023/01/08 01:48:51;;;;;;;6.67;4.60;;;7.90;99.90;;;;;;4204571;28;20456;-77
2023/01/08 01:50:54;;;;;;;7.43;4.80;;;7.70;99.90;;;;;;4201915;28;20478;-78
2023/01/08 01:53:01;;;;;;;7.00;5.00;;;7.70;99.90;;;;;;4202936;28;20484;-79
2023/01/08 01:55:05;;;;;;;6.60;4.23;;;7.70;99.90;;;;;;4204833;28;20455;-77
2023/01/08 01:57:08;;;;;;;7.47;4.70;;;7.70;99.90;;;;;;4211250;28;20463;-78
2023/01/08 01:59:11;;;;;;;7.40;4.60;;;7.70;99.90;;;;;;4209328;28;20476;-78
2023/01/08 02:01:14;;;;;;;7.53;4.90;;;7.70;99.90;;;;;;4208530;28;20547;-79
2023/01/08 02:03:20;;;;;;;7.67;4.60;;;7.60;99.90;;;;;;4207819;28;20465;-79
2023/01/08 02:05:28;;;;;;;7.33;4.67;;;7.60;99.90;;;;;;4206655;28;20751;-79
2023/01/08 02:07:38;;;;;;;9.83;4.47;;;7.60;99.90;;;;;;4205183;28;20498;-79
2023/01/08 02:09:45;;;;;;;7.40;4.97;;;7.60;99.90;;;;;;4209557;28;20458;-78
2023/01/08 02:12:15;;;;;;;6.70;4.10;;;7.50;99.90;;;;;;4205186;28;20459;-77
2023/01/08 02:14:21;;;;;;;7.80;4.30;;;7.50;99.90;;;;;;4206363;28;20471;-79
2023/01/08 02:16:31;;;;;;;8.40;4.50;;;7.50;99.90;;;;;;4207449;28;20535;-78
2023/01/08 02:18:40;;;;;;;6.80;4.60;;;7.50;99.90;;;;;;4203475;28;20467;-80
2023/01/08 02:20:47;;;;;;;6.90;4.30;;;7.50;99.90;;;;;;4203346;28;20489;-79
2023/01/08 02:23:10;;;;;;;7.83;4.83;;;7.40;99.90;;;;;;4208842;28;20460;-79
2023/01/08 02:25:22;;;;;;;8.07;4.57;;;7.40;99.90;;;;;;4208218;28;20461;-79
2023/01/08 02:27:27;;;;;;;6.63;4.43;;;7.40;99.90;;;;;;4211366;28;20927;-78
2023/01/08 02:29:32;;;;;;;7.37;4.90;;;7.40;99.90;;;;;;4208281;28;20508;-78
2023/01/08 02:31:37;;;;;;;6.47;4.60;;;7.30;99.90;;;;;;4204598;28;20506;-76
2023/01/08 02:33:40;;;;;;;7.87;4.60;;;7.30;99.90;;;;;;4209425;28;20490;-79
2023/01/08 02:35:46;;;;;;;5.90;4.27;;;7.30;99.90;;;;;;4206964;28;20455;-79
2023/01/08 02:37:48;;;;;;;8.07;4.60;;;7.20;99.90;;;;;;4204077;28;20475;-79
2023/01/08 02:40:01;;;;;;;6.57;4.73;;;7.20;99.90;;;;;;4207513;28;20499;-79
2023/01/08 02:42:11;;;;;;;7.30;4.50;;;7.20;99.90;;;;;;4209605;28;20559;-79
2023/01/08 02:44:20;;;;;;;6.23;4.10;;;7.20;99.90;;;;;;4212101;28;20544;-78
2023/01/08 02:46:30;;;;;;;6.10;4.17;;;7.20;99.90;;;;;;4206023;28;20577;-79
2023/01/08 02:48:39;;;;;;;5.77;3.73;;;7.20;99.90;;;;;;4206171;28;20955;-79
2023/01/08 02:50:44;;;;;;;6.80;4.13;;;7.60;99.90;;;;;;4205270;28;20554;-79
2023/01/08 02:52:53;;;;;;;6.70;4.10;;;7.20;99.90;;;;;;4210496;28;20485;-79
2023/01/08 02:54:57;;;;;;;6.33;4.10;;;7.10;99.90;;;;;;4200278;28;20533;-79
2023/01/08 02:57:02;;;;;;;6.30;4.17;;;7.20;99.90;;;;;;4201127;28;21024;-79
2023/01/08 02:59:07;;;;;;;6.67;4.30;;;7.20;99.90;;;;;;4204011;28;20550;-79
2023/01/08 03:01:12;;;;;;;7.47;4.40;;;7.20;99.90;;;;;;4199405;28;20561;-79
2023/01/08 03:03:19;;;;;;;6.20;4.23;;;7.20;99.90;;;;;;4202197;28;20493;-78
2023/01/08 03:05:25;;;;;;;6.13;3.70;;;7.20;99.90;;;;;;4207150;28;20490;-78
2023/01/08 03:07:27;;;;;;;7.50;4.47;;;7.20;99.90;;;;;;4204993;28;20447;-80
2023/01/08 03:09:29;;;;;;;5.37;3.63;;;7.20;99.90;;;;;;4202669;28;20528;-79
2023/01/08 03:11:36;;;;;;;5.03;3.80;;;7.20;99.90;;;;;;4201575;28;20555;-79
2023/01/08 03:13:43;;;;;;;5.73;3.60;;;7.30;99.90;;;;;;4204894;28;20478;-79
2023/01/08 03:15:49;;;;;;;6.57;3.63;;;7.30;99.90;;;;;;4201159;28;20455;-77
2023/01/08 03:17:57;;;;;;;5.53;3.60;;;7.30;99.90;;;;;;4204230;28;20455;-78
2023/01/08 03:20:02;;;;;;;6.03;3.93;;;7.30;99.90;;;;;;4201401;28;20493;-79
2023/01/08 03:22:08;;;;;;;4.87;3.23;;;7.60;99.90;;;;;;4207029;28;20981;-79
2023/01/08 03:24:14;;;;;;;4.90;3.67;;;7.30;99.90;;;;;;4204779;28;20994;-79
2023/01/08 03:26:21;;;;;;;4.03;3.13;;;7.30;99.90;;;;;;4198121;28;20453;-79
2023/01/08 03:28:29;;;;;;;6.23;3.60;;;7.30;99.90;;;;;;4202921;28;20451;-80
2023/01/08 03:30:32;;;;;;;5.20;3.27;;;7.30;99.90;;;;;;4205773;28;20503;-79
2023/01/08 03:32:35;;;;;;;4.50;3.17;;;7.20;99.90;;;;;;4202622;28;20478;-79
2023/01/08 03:34:41;;;;;;;5.07;3.20;;;7.30;99.90;;;;;;4200750;28;20528;-80
2023/01/08 03:36:46;;;;;;;5.27;3.23;;;7.30;99.90;;;;;;4202583;28;20836;-79
2023/01/08 03:38:53;;;;;;;5.20;3.20;;;7.30;99.90;;;;;;4196463;28;20467;-78
2023/01/08 03:40:59;;;;;;;5.17;3.30;;;7.30;99.90;;;;;;4204576;28;20481;-80
2023/01/08 03:43:02;;;;;;;5.17;3.47;;;7.30;99.90;;;;;;4205117;28;20443;-79
2023/01/08 03:45:04;;;;;;;3.97;3.00;;;7.30;99.90;;;;;;4203335;28;20491;-79
2023/01/08 03:47:10;;;;;;;5.40;3.37;;;7.30;99.90;;;;;;4203953;28;20778;-78
2023/01/08 03:49:12;;;;;;;5.57;3.23;;;7.30;99.90;;;;;;4201928;28;20461;-79
2023/01/08 03:51:17;;;;;;;5.70;3.33;;;7.30;99.90;;;;;;4208544;28;20462;-79
2023/01/08 03:53:19;;;;;;;5.67;3.10;;;7.30;99.90;;;;;;4199833;28;20472;-79
2023/01/08 03:55:27;;;;;;;5.77;2.97;;;7.30;99.90;;;;;;4210555;28;20523;-79
2023/01/08 03:57:29;;;;;;;7.83;3.33;;;7.40;99.90;;;;;;4203769;28;20446;-78
2023/01/08 03:59:31;;;;;;;3.13;2.43;;;7.30;99.90;;;;;;4203092;28;20452;-78
2023/01/08 04:01:33;;;;;;;4.40;2.87;;;7.30;99.90;;;;;;4201173;28;20852;-78
2023/01/08 04:03:35;;;;;;;4.23;2.73;;;7.30;99.90;;;;;;4197538;28;20469;-80
2023/01/08 04:05:40;;;;;;;4.00;2.70;;;7.30;99.90;;;;;;4201426;28;20460;-79
2023/01/08 04:07:43;;;;;;;3.97;2.77;;;7.30;99.90;;;;;;4202714;28;20505;-80
2023/01/08 04:09:45;;;;;;;5.07;3.00;;;7.30;99.90;;;;;;4200085;28;20486;-77
2023/01/08 04:11:47;;;;;;;4.10;2.43;;;7.30;99.90;;;;;;4203882;28;20535;-79
2023/01/08 04:13:49;;;;;;;4.53;2.77;;;7.40;99.90;;;;;;4200141;28;20997;-78
2023/01/08 04:15:52;;;;;;;4.20;3.20;;;7.40;99.90;;;;;;4200739;28;21004;-79
2023/01/08 04:17:54;;;;;;;4.30;2.67;;;7.40;99.90;;;;;;4209571;28;20455;-79
2023/01/08 04:19:56;;;;;;;4.50;2.70;;;7.40;99.90;;;;;;4201566;28;20490;-79
2023/01/08 04:21:58;;;;;;;4.77;2.83;;;7.50;99.90;;;;;;4201345;28;20501;-78
2023/01/08 04:24:01;;;;;;;4.07;2.60;;;7.50;99.90;;;;;;4198778;28;20455;-79
2023/01/08 04:26:05;;;;;;;4.33;2.70;;;7.40;99.90;;;;;;4203998;28;20532;-80
2023/01/08 04:28:07;;;;;;;4.20;2.90;;;7.50;99.90;;;;;;4202490;28;20458;-79
2023/01/08 04:30:10;;;;;;;4.00;2.90;;;7.50;99.90;;;;;;4204034;28;20467;-79
2023/01/08 04:32:12;;;;;;;4.93;3.00;;;7.50;99.90;;;;;;4203420;28;20490;-79
2023/01/08 04:34:14;;;;;;;4.50;3.07;;;7.50;99.90;;;;;;4199629;28;20526;-79
2023/01/08 04:36:16;;;;;;;3.70;2.70;;;7.60;99.90;;;;;;4202266;28;20447;-79
2023/01/08 04:38:18;;;;;;;4.50;3.07;;;7.50;99.90;;;;;;4198268;28;20582;-80
2023/01/08 04:40:21;;;;;;;4.80;2.90;;;7.60;99.90;;;;;;4205045;28;20502;-79
2023/01/08 04:42:23;;;;;;;5.57;2.97;;;7.60;99.90;;;;;;4203586;28;20507;-79
2023/01/08 04:44:25;;;;;;;5.27;2.40;;;7.50;99.90;;;;;;4203695;28;20483;-78
2023/01/08 04:46:27;;;;;;;3.83;2.60;;;7.50;99.90;;;;;;4202153;28;20493;-80
2023/01/08 04:48:31;;;;;;;3.33;2.37;;;7.50;99.90;;;;;;4200394;28;20444;-79
2023/01/08 04:50:33;;;;;;;6.40;2.97;;;7.50;99.90;;;;;;4204306;28;20502;-79
2023/01/08 04:52:35;;;;;;;5.43;3.20;;;7.60;99.90;;;;;;4206672;28;20201;-79
2023/01/08 04:54:37;;;;;;;4.97;2.77;;;7.50;99.90;;;;;;4202566;28;20509;-79
2023/01/08 04:56:40;;;;;;;5.73;3.20;;;7.50;99.90;;;;;;4208538;28;20486;-79
2023/01/08 04:58:42;;;;;;;3.93;2.93;;;7.50;99.90;;;;;;4202986;28;20991;-79
2023/01/08 05:00:44;;;;;;;4.97;3.13;;;7.50;99.90;;;;;;4211643;28;20465;-79
2023/01/08 05:02:46;;;;;;;3.93;2.60;;;7.50;99.90;;;;;;4197839;28;20471;-79
2023/01/08 05:04:50;;;;;;;4.10;3.00;;;7.60;99.90;;;;;;4207125;28;20459;-79
2023/01/08 05:06:52;;;;;;;3.50;2.63;;;7.50;99.90;;;;;;4209210;28;20504;-76
2023/01/08 05:08:54;;;;;;;3.93;2.80;;;7.50;99.90;;;;;;4206892;28;20805;-77
2023/01/08 05:10:58;;;;;;;5.63;2.83;;;7.50;99.90;;;;;;4199269;28;20495;-76
2023/01/08 05:13:02;;;;;;;3.43;2.60;;;7.50;99.90;;;;;;4202656;28;20514;-77
2023/01/08 05:15:04;;;;;;;6.80;2.97;;;7.50;99.90;;;;;;4204665;28;20451;-78
2023/01/08 05:17:06;;;;;;;6.13;2.90;;;7.50;99.90;;;;;;4202873;28;20509;-76
2023/01/08 05:19:08;;;;;;;4.83;2.60;;;7.50;99.90;;;;;;4199856;28;20519;-76
2023/01/08 05:21:10;;;;;;;6.80;2.90;;;7.50;99.90;;;;;;4202065;28;20927;-76
2023/01/08 05:23:12;;;;;;;5.87;3.20;;;7.50;99.90;;;;;;4203310;28;20559;-77
2023/01/08 05:25:14;;;;;;;5.43;3.00;;;7.60;99.90;;;;;;4204393;28;20948;-76
2023/01/08 05:27:16;;;;;;;4.23;2.53;;;7.50;99.90;;;;;;4202565;28;20540;-77
2023/01/08 05:29:20;;;;;;;4.33;2.60;;;7.60;99.90;;;;;;4206015;28;20496;-77
2023/01/08 05:31:22;;;;;;;5.37;3.07;;;7.60;99.90;;;;;;4204275;28;20495;-77
2023/01/08 05:33:24;;;;;;;4.20;2.70;;;7.60;99.90;;;;;;4204772;28;20506;-78
2023/01/08 05:35:26;;;;;;;5.80;2.80;;;7.60;99.90;;;;;;4199628;28;20512;-77
2023/01/08 05:37:27;;;;;;;3.57;2.40;;;7.60;99.90;;;;;;4201325;28;20458;-78
2023/01/08 05:39:29;;;;;;;3.80;2.50;;;7.60;99.90;;;;;;4200986;28;20925;-76
2023/01/08 05:41:31;;;;;;;5.57;2.50;;;7.60;99.90;;;;;;4205971;28;20300;-77
2023/01/08 05:43:33;;;;;;;4.73;2.40;;;7.60;99.90;;;;;;4202830;28;20479;-76
2023/01/08 05:45:36;;;;;;;3.37;2.53;;;7.60;99.90;;;;;;4204698;28;20886;-77
2023/01/08 05:47:38;;;;;;;3.60;2.40;;;7.70;99.90;;;;;;4203316;28;20440;-77
2023/01/08 05:49:40;;;;;;;3.63;2.23;;;7.70;99.90;;;;;;4197215;28;20460;-77
2023/01/08 05:51:42;;;;;;;3.50;2.37;;;7.70;99.90;;;;;;4198208;28;20447;-76
2023/01/08 05:53:44;;;;;;;5.93;2.90;;;7.70;99.90;;;;;;4205673;28;20579;-80
2023/01/08 05:55:46;;;;;;;5.00;2.47;;;7.70;99.90;;;;;;4203839;28;20500;-77
2023/01/08 05:57:48;;;;;;;4.87;2.50;;;7.70;99.90;;;;;;4200535;28;20470;-78
2023/01/08 05:59:50;;;;;;;3.87;2.70;;;7.70;99.90;;;;;;4203208;28;20547;-78
2023/01/08 06:01:54;;;;;;;3.90;2.27;;;7.70;99.90;;;;;;4203709;28;20518;-77
2023/01/08 06:03:57;;;;;;;3.70;2.40;;;7.70;99.90;;;;;;4197141;28;20452;-76
2023/01/08 06:06:00;;;;;;;3.73;2.37;;;7.70;99.90;;;;;;4200495;28;20471;-77
2023/01/08 06:08:02;;;;;;;3.90;2.60;;;7.70;99.90;;;;;;4207303;28;20454;-76
2023/01/08 06:10:05;;;;;;;4.90;2.80;;;7.70;99.90;;;;;;4205862;28;20514;-76
2023/01/08 06:12:07;;;;;;;4.97;2.57;;;7.70;99.90;;;;;;4204528;28;20521;-77
2023/01/08 06:14:09;;;;;;;3.57;2.50;;;7.80;99.90;;;;;;4200138;28;21027;-77
2023/01/08 06:16:12;;;;;;;3.90;2.70;;;7.80;99.90;;;;;;4205123;28;20460;-78
2023/01/08 06:18:15;;;;;;;4.00;2.60;;;7.80;99.90;;;;;;4205007;28;20533;-77
2023/01/08 06:20:17;;;;;;;4.00;2.90;;;7.80;99.90;;;;;;4208047;28;20507;-77
2023/01/08 06:22:19;;;;;;;3.93;2.73;;;7.80;99.90;;;;;;4206954;28;20486;-77
2023/01/08 06:24:21;;;;;;;4.13;2.73;;;7.80;99.90;;;;;;4196159;28;20539;-78
2023/01/08 06:26:23;;;;;;;4.17;2.80;;;7.80;99.90;;;;;;4199487;28;21095;-76
2023/01/08 06:28:25;;;;;;;4.70;3.00;;;7.80;99.90;;;;;;4203918;28;20467;-77
2023/01/08 06:30:27;;;;;;;4.40;2.90;;;7.80;99.90;;;;;;4202328;28;20472;-77
2023/01/08 06:32:29;;;;;;;4.77;3.03;;;7.80;99.90;;;;;;4200544;28;20508;-77
2023/01/08 06:34:32;;;;;;;4.97;2.80;;;7.90;99.90;;;;;;4197318;28;20491;-76
2023/01/08 06:36:34;;;;;;;5.57;2.93;;;7.80;99.90;;;;;;4202406;28;20614;-77
2023/01/08 06:38:37;;;;;;;4.30;2.80;;;7.80;99.90;;;;;;4207509;28;21024;-76
2023/01/08 06:40:39;;;;;;;5.93;3.13;;;7.80;99.90;;;;;;4205917;28;20566;-76
2023/01/08 06:42:42;;;;;;;5.40;3.00;;;7.80;99.90;;;;;;4204277;28;20928;-76
2023/01/08 06:44:44;;;;;;;3.70;2.80;;;7.90;99.90;;;;;;4199420;28;20463;-77
2023/01/08 06:46:46;;;;;;;4.13;2.70;;;7.80;99.90;;;;;;4203664;28;20542;-78
2023/01/08 06:48:47;;;;;;;5.50;3.47;;;7.90;99.90;;;;;;4197129;28;20506;-77
2023/01/08 06:50:51;;;;;;;4.60;2.50;;;7.80;99.90;;;;;;4205125;28;21054;-78
2023/01/08 06:52:54;;;;;;;4.73;2.90;;;7.90;99.90;;;;;;4202948;28;21019;-77
2023/01/08 06:54:56;;;;;;;5.20;2.97;;;7.80;99.90;;;;;;4202142;28;20482;-80
2023/01/08 06:56:58;;;;;;;4.87;2.90;;;7.80;99.90;;;;;;4199987;28;20459;-76
2023/01/08 06:59:00;;;;;;;4.50;2.97;;;7.80;99.90;;;;;;4203856;28;20542;-76
2023/01/08 07:01:01;;;;;;;4.43;2.87;;;7.80;99.90;;;;;;4203784;28;20471;-77
2023/01/08 07:03:04;;;;;;;4.60;2.93;;;7.90;99.90;;;;;;4198364;28;20828;-77
2023/01/08 07:05:06;;;;;;;4.73;3.00;;;7.90;99.90;;;;;;4197038;28;20899;-78
2023/01/08 07:07:12;;;;;;;4.47;3.17;;;7.90;99.90;;;;;;4205998;28;20459;-77
2023/01/08 07:09:14;;;;;;;6.13;3.57;;;7.90;99.90;;;;;;4207795;28;20463;-76
2023/01/08 07:11:17;;;;;;;5.13;3.10;;;7.90;99.90;;;;;;4205063;28;20647;-79
2023/01/08 07:13:19;;;;;;;4.70;2.93;;;7.90;99.90;;;;;;4206105;28;20469;-78
2023/01/08 07:15:21;;;;;;;6.53;3.50;;;7.90;99.90;;;;;;4206043;28;20581;-77
2023/01/08 07:17:23;;;;;;;8.80;3.20;;;7.90;99.90;;;;;;4204332;28;20233;-77
2023/01/08 07:19:25;;;;;;;4.60;3.03;;;7.90;99.90;;;;;;4204781;28;20294;-77
2023/01/08 07:21:27;;;;;;;6.43;3.30;;;7.90;99.90;;;;;;4207439;28;20476;-77
2023/01/08 07:23:30;;;;;;;5.93;3.07;;;8.10;99.90;;;;;;4208831;28;20474;-77
2023/01/08 07:25:32;;;;;;;4.43;3.03;;;7.90;99.90;;;;;;4195595;28;20718;-77
2023/01/08 07:27:34;;;;;;;4.27;2.83;;;7.90;99.90;;;;;;4203197;28;20480;-76
2023/01/08 07:29:36;;;;;;;5.60;3.03;;;7.90;99.90;;;;;;4202940;28;20539;-76
2023/01/08 07:31:38;;;;;;;5.90;3.40;;;7.90;99.90;;;;;;4207016;28;20853;-77
2023/01/08 07:33:40;;;;;;;8.03;3.53;;;7.90;99.90;;;;;;4202688;28;20444;-77
2023/01/08 07:35:42;;;;;;;7.90;4.13;;;7.90;99.90;;;;;;4201419;28;20232;-76
2023/01/08 07:37:44;;;;;;;5.60;3.57;;;7.90;99.90;;;;;;4200252;28;20497;-77
2023/01/08 07:39:47;;;;;;;4.93;3.10;;;7.90;99.90;;;;;;4201285;28;20466;-77
2023/01/08 07:41:49;;;;;;;4.97;3.00;;;7.90;99.90;;;;;;4201502;28;20954;-79
2023/01/08 07:43:51;;;;;;;4.63;2.83;;;7.90;99.90;;;;;;4201012;28;21189;-78
2023/01/08 07:45:53;;;;;;;5.27;3.20;;;7.90;99.90;;;;;;4196174;28;20686;-77
2023/01/08 07:47:57;;;;;;;5.83;3.50;;;7.90;99.90;;;;;;4196617;28;20259;-77
2023/01/08 07:49:59;;;;;;;4.10;2.90;;;7.90;99.90;;;;;;4201172;28;20521;-78
2023/01/08 07:52:01;;;;;;;8.27;3.20;;;7.90;99.90;;;;;;4197235;28;20461;-77
2023/01/08 07:54:03;;;;;;;5.40;3.23;;;7.80;99.90;;;;;;4200684;28;20493;-76
2023/01/08 07:56:09;;;;;;;5.77;3.47;;;7.90;99.90;;;;;;4201804;28;20455;-76
2023/01/08 07:58:13;;;;;;;6.57;3.30;;;7.90;99.90;;;;;;4198655;28;20516;-77
2023/01/08 08:00:15;;;;;;;6.40;3.43;;;7.80;99.90;;;;;;4204180;28;20472;-77
2023/01/08 08:02:17;;;;;;;4.83;2.90;;;7.90;99.90;;;;;;4203545;28;20475;-78
2023/01/08 08:04:19;;;;;;;5.57;3.63;;;7.90;99.90;;;;;;4200567;28;20204;-77
2023/01/08 08:06:21;;;;;;;5.80;2.93;;;7.90;99.90;;;;;;4199152;28;20225;-77
2023/01/08 08:08:23;;;;;;;5.23;2.97;;;7.90;99.90;;;;;;4200834;28;20490;-77
2023/01/08 08:10:25;;;;;;;5.20;3.00;;;7.80;99.90;;;;;;4200153;28;20252;-77
2023/01/08 08:12:28;;;;;;;6.83;3.50;;;7.90;99.90;;;;;;4198641;28;20259;-78
2023/01/08 08:14:30;;;;;;;5.30;3.37;;;7.90;99.90;;;;;;4201879;28;20478;-78
2023/01/08 08:16:32;;;;;;;5.43;3.13;;;7.90;99.90;;;;;;4198359;28;20510;-77
2023/01/08 08:18:34;;;;;;;5.80;3.30;;;7.90;99.90;;;;;;4201065;28;20448;-77
2023/01/08 08:20:36;;;;;;;4.57;2.90;;;7.90;99.90;;;;;;4201919;28;20499;-76
2023/01/08 08:22:38;;;;;;;5.20;3.13;;;8.00;99.90;;;;;;4199677;28;21262;-76
2023/01/08 08:24:40;;;;;;;5.70;2.80;;;8.00;99.90;;;;;;4201534;28;21016;-78
2023/01/08 08:26:42;;;;;;;4.90;3.17;;;8.00;99.90;;;;;;4201005;28;20883;-76
2023/01/08 08:28:45;;;;;;;4.30;2.80;;;8.00;99.90;;;;;;4200007;28;20466;-76
2023/01/08 08:30:47;;;;;;;5.07;2.97;;;8.00;99.90;;;;;;4194363;28;21057;-76
2023/01/08 08:32:49;;;;;;;5.73;3.33;;;8.00;99.90;;;;;;4196800;28;20580;-77
2023/01/08 08:34:51;;;;;;;4.77;3.03;;;8.00;99.90;;;;;;4201979;28;20573;-78
2023/01/08 08:36:53;;;;;;;6.27;3.37;;;8.00;99.90;;;;;;4200122;28;20479;-78
2023/01/08 08:38:55;;;;;;;7.77;4.10;;;8.00;99.90;;;;;;4203882;28;20490;-78
2023/01/08 08:40:57;;;;;;;6.23;3.20;;;8.10;99.90;;;;;;4201675;28;20558;-78
2023/01/08 08:43:00;;;;;;;3.90;3.07;;;8.00;99.90;;;;;;4209993;28;20539;-79
2023/01/08 08:45:04;;;;;;;6.10;3.20;;;8.10;99.90;;;;;;4199177;28;20552;-78
2023/01/08 08:47:07;;;;;;;4.53;2.93;;;8.10;99.90;;;;;;4203478;28;20546;-78
2023/01/08 08:49:09;;;;;;;8.60;3.97;;;8.10;99.90;;;;;;4201387;28;20482;-78
2023/01/08 08:51:11;;;;;;;6.93;3.40;;;8.00;99.90;;;;;;4203124;28;20228;-77
2023/01/08 08:53:14;;;;;;;6.90;3.40;;;8.00;99.90;;;;;;4202151;28;20535;-78
2023/01/08 08:55:16;;;;;;;5.67;3.47;;;8.00;99.90;;;;;;4203302;28;20518;-78
2023/01/08 08:57:18;;;;;;;7.13;3.40;;;7.90;99.90;;;;;;4199293;28;20736;-78
2023/01/08 08:59:20;;;;;;;6.70;3.37;;;7.90;99.90;;;;;;4196662;28;20456;-79
2023/01/08 09:01:23;;;;;;;4.83;3.00;;;7.90;99.90;;;;;;4202202;28;20225;-78
2023/01/08 09:03:25;;;;;;;7.47;3.33;;;7.90;99.90;;;;;;4192669;28;20234;-79
2023/01/08 09:05:27;;;;;;;8.23;3.80;;;7.90;99.90;;;;;;4196194;28;20234;-79
2023/01/08 09:07:29;;;;;;;5.07;3.33;;;7.90;99.90;;;;;;4201463;28;20240;-79
2023/01/08 09:09:31;;;;;;;5.80;3.33;;;7.90;99.90;;;;;;4198575;28;20586;-79
2023/01/08 09:11:33;;;;;;;5.13;3.33;;;7.90;99.90;;;;;;4202409;28;20218;-78
2023/01/08 09:13:36;;;;;;;5.60;3.47;;;7.90;99.90;;;;;;4199893;28;20229;-79
2023/01/08 09:15:38;;;;;;;6.90;3.47;;;7.90;99.90;;;;;;4197245;28;20475;-79
2023/01/08 09:17:42;;;;;;;6.83;3.67;;;7.90;99.90;;;;;;4200562;28;20488;-77
2023/01/08 09:19:44;;;;;;;7.93;4.00;;;7.90;99.90;;;;;;4202798;28;20462;-77
2023/01/08 09:21:45;;;;;;;6.40;3.57;;;7.90;99.90;;;;;;4204327;28;20277;-76
2023/01/08 09:23:48;;;;;;;5.93;3.50;;;7.90;99.90;;;;;;4200481;28;21025;-76
2023/01/08 09:25:58;;;;;;;5.30;3.30;;;7.90;99.90;;;;;;4205999;28;20512;-78
2023/01/08 09:28:00;;;;;;;6.20;3.43;;;7.90;99.90;;;;;;4204354;28;20458;-76
2023/01/08 09:30:06;;;;;;;6.57;3.50;;;7.90;99.90;;;;;;4204036;28;20551;-77
2023/01/08 09:32:09;;;;;;;5.47;3.67;;;7.90;99.90;;;;;;4203682;28;20509;-77
2023/01/08 09:34:12;;;;;;;8.60;3.90;;;7.90;99.90;;;;;;4205521;28;21035;-77
2023/01/08 09:36:14;;;;;;;6.67;3.87;;;8.00;99.90;;;;;;4196781;28;20646;-77
2023/01/08 09:38:16;;;;;;;7.30;3.83;;;7.90;99.90;;;;;;4197146;28;21292;-78
2023/01/08 09:40:19;;;;;;;6.97;4.17;;;8.00;99.90;;;;;;4202184;28;20221;-77
2023/01/08 09:42:25;;;;;;;6.53;3.83;;;7.90;99.90;;;;;;4203908;28;20479;-78
2023/01/08 09:44:32;;;;;;;9.13;4.07;;;8.00;99.90;;;;;;4203970;28;20237;-76
2023/01/08 09:46:36;;;;;;;8.27;3.87;;;8.00;99.90;;;;;;4201850;28;20216;-78
2023/01/08 09:48:39;;;;;;;5.93;4.00;;;8.00;99.90;;;;;;4200595;28;20468;-77
2023/01/08 09:50:43;;;;;;;5.57;3.50;;;8.00;99.90;;;;;;4204312;28;20308;-76
2023/01/08 09:52:45;;;;;;;6.33;3.90;;;8.00;99.90;;;;;;4199818;28;20459;-76
2023/01/08 09:54:47;;;;;;;5.53;3.70;;;8.10;99.90;;;;;;4200765;28;20511;-79
2023/01/08 09:56:49;;;;;;;7.10;3.50;;;8.10;99.90;;;;;;4205923;28;20236;-77
2023/01/08 09:58:53;;;;;;;7.73;3.63;;;8.00;99.90;;;;;;4201958;28;20624;-76
2023/01/08 10:00:55;;;;;;;7.40;3.90;;;8.10;99.90;;;;;;4196354;28;20521;-76
2023/01/08 10:02:58;;;;;;;7.40;3.80;;;8.10;99.90;;;;;;4200163;28;20952;-79
2023/01/08 10:05:04;;;;;;;6.10;3.53;;;8.10;99.90;;;;;;4203964;28;20210;-78
2023/01/08 10:07:17;;;;;;;6.10;3.70;;;8.10;99.90;;;;;;4205478;28;20275;-80
2023/01/08 10:09:23;;;;;;;5.27;3.40;;;8.10;99.90;;;;;;4203322;28;20221;-76
2023/01/08 10:11:28;;;;;;;7.60;4.00;;;8.10;99.90;;;;;;4206433;28;20260;-78
2023/01/08 10:13:31;;;;;;;6.93;3.63;;;8.20;99.90;;;;;;4207491;28;20205;-75
2023/01/08 10:15:33;;;;;;;7.23;3.90;;;8.10;99.90;;;;;;4200670;28;20233;-79
2023/01/08 10:17:38;;;;;;;10.87;4.33;;;8.20;99.90;;;;;;4196766;28;20202;-77
2023/01/08 10:19:40;;;;;;;7.27;3.50;;;8.20;99.90;;;;;;4202529;28;20584;-76
2023/01/08 10:21:42;;;;;;;6.97;3.50;;;8.20;99.90;;;;;;4199665;28;20213;-79
2023/01/08 10:23:53;;;;;;;6.73;3.97;;;8.30;99.90;;;;;;4202551;28;20633;-82
2023/01/08 10:25:57;;;;;;;6.97;3.97;;;8.20;99.90;;;;;;4204298;28;20209;-81
2023/01/08 10:28:00;;;;;;;5.43;3.37;;;8.30;99.90;;;;;;4200418;28;20237;-80
2023/01/08 10:30:06;;;;;;;5.83;3.70;;;8.30;99.90;;;;;;4205683;28;20532;-80
2023/01/08 10:32:13;;;;;;;6.00;3.77;;;8.30;99.90;;;;;;4197031;28;20458;-78
2023/01/08 10:34:26;;;;;;;6.50;3.50;;;8.30;99.90;;;;;;4206116;28;20209;-76
2023/01/08 10:36:28;;;;;;;6.53;3.43;;;8.30;99.90;;;;;;4202251;28;20464;-77
2023/01/08 10:38:38;;;;;;;6.30;4.10;;;8.30;99.90;;;;;;4200391;28;20237;-81
2023/01/08 10:40:48;;;;;;;8.57;3.87;;;8.30;99.90;;;;;;4202507;28;20449;-80
2023/01/08 10:43:14;;;;;;;7.00;3.73;;;8.40;99.90;;;;;;4202159;28;20629;-77
2023/01/08 10:45:20;;;;;;;8.40;3.83;;;8.40;99.90;;;;;;4201536;28;20202;-79
2023/01/08 10:47:23;;;;;;;6.30;3.67;;;8.30;99.90;;;;;;4207278;28;20452;-81
2023/01/08 10:49:32;;;;;;;7.27;4.13;;;8.40;99.90;;;;;;4206032;28;20208;-81
2023/01/08 10:51:34;;;;;;;6.23;4.07;;;8.30;99.90;;;;;;4204764;28;20258;-77
2023/01/08 10:53:36;;;;;;;6.20;3.97;;;8.40;99.90;;;;;;4201379;28;20241;-80